PBD458 UWKS-UUWW
Flight info
| Callsign | PBD458 |
|---|---|
| Flight time | 0h 59m |
| Altitude | 36000 |
| Route | IRGOS1C IRGOS L158 DIMGI DIMGI3A |
| Aircraft | B738/M-SDE2E3FGHIRWXY/LB1 |
Departure
| Time | 2026-04-16 08:19 |
|---|---|
| Airport | Cheboksary Airport (UWKS) |
Arrival
| Time | 2026-04-16 09:19 |
|---|---|
| Airport | Vnukovo International Airport (UUWW) |
| Time | Latitude | Longitude | Altitude | Speed | Heading |
|---|---|---|---|---|---|
| 2026-04-16 08:13 | 56.08326 | 47.32090 | 563 ft | 0 kts | 262° |
| 2026-04-16 08:14 | 56.08326 | 47.32088 | 563 ft | 1 kts | 262° |
| 2026-04-16 08:14 | 56.08331 | 47.32058 | 571 ft | 4 kts | 310° |
| 2026-04-16 08:14 | 56.08363 | 47.32080 | 566 ft | 8 kts | 70° |
| 2026-04-16 08:15 | 56.08396 | 47.32197 | 563 ft | 13 kts | 51° |
| 2026-04-16 08:15 | 56.08462 | 47.32357 | 569 ft | 18 kts | 54° |
| 2026-04-16 08:15 | 56.08544 | 47.32566 | 563 ft | 22 kts | 54° |
| 2026-04-16 08:15 | 56.08594 | 47.32693 | 565 ft | 6 kts | 54° |
| 2026-04-16 08:16 | 56.08617 | 47.32751 | 563 ft | 6 kts | 54° |
| 2026-04-16 08:16 | 56.08640 | 47.32808 | 567 ft | 6 kts | 54° |
| 2026-04-16 08:16 | 56.08663 | 47.32862 | 571 ft | 6 kts | 49° |
| 2026-04-16 08:16 | 56.08688 | 47.32915 | 566 ft | 5 kts | 56° |
| 2026-04-16 08:17 | 56.08706 | 47.32975 | 569 ft | 5 kts | 67° |
| 2026-04-16 08:17 | 56.08718 | 47.33038 | 571 ft | 5 kts | 71° |
| 2026-04-16 08:17 | 56.08742 | 47.33168 | 569 ft | 31 kts | 71° |
| 2026-04-16 08:17 | 56.08885 | 47.33942 | 570 ft | 99 kts | 72° |
| 2026-04-16 08:18 | 56.09171 | 47.35438 | 568 ft | 153 kts | 71° |
| 2026-04-16 08:19 | 56.04973 | 47.42570 | 4667 ft | 265 kts | 231° |
| 2026-04-16 08:20 | 56.04336 | 47.39438 | 5483 ft | 276 kts | 266° |
| 2026-04-16 08:20 | 56.04757 | 47.36125 | 6235 ft | 282 kts | 297° |
| 2026-04-16 08:20 | 56.05687 | 47.33001 | 7000 ft | 287 kts | 296° |
| 2026-04-16 08:20 | 56.06498 | 47.29710 | 7733 ft | 291 kts | 291° |
| 2026-04-16 08:21 | 56.07225 | 47.26320 | 8540 ft | 293 kts | 290° |
| 2026-04-16 08:21 | 56.07677 | 47.22753 | 9306 ft | 295 kts | 266° |
| 2026-04-16 08:21 | 56.07163 | 47.19238 | 10116 ft | 293 kts | 238° |
| 2026-04-16 08:21 | 56.05842 | 47.16488 | 10696 ft | 297 kts | 214° |
| 2026-04-16 08:22 | 56.03947 | 47.14752 | 10877 ft | 316 kts | 204° |
| 2026-04-16 08:22 | 56.02175 | 47.12196 | 11089 ft | 343 kts | 230° |
| 2026-04-16 08:22 | 56.00846 | 47.08625 | 11624 ft | 353 kts | 238° |
| 2026-04-16 08:22 | 55.99629 | 47.04754 | 12345 ft | 357 kts | 239° |
| 2026-04-16 08:23 | 55.98418 | 47.00861 | 13102 ft | 359 kts | 239° |
| 2026-04-16 08:23 | 55.97177 | 46.97007 | 13828 ft | 363 kts | 238° |
| 2026-04-16 08:23 | 55.95869 | 46.93103 | 14517 ft | 367 kts | 237° |
| 2026-04-16 08:23 | 55.94525 | 46.89202 | 15233 ft | 370 kts | 236° |
| 2026-04-16 08:24 | 55.93151 | 46.85284 | 15948 ft | 373 kts | 236° |
| 2026-04-16 08:24 | 55.91768 | 46.81382 | 16647 ft | 377 kts | 236° |
| 2026-04-16 08:24 | 55.90357 | 46.77423 | 17377 ft | 380 kts | 236° |
| 2026-04-16 08:24 | 55.88928 | 46.73423 | 18071 ft | 384 kts | 236° |
| 2026-04-16 08:25 | 55.87482 | 46.69384 | 18721 ft | 388 kts | 236° |
| 2026-04-16 08:25 | 55.86017 | 46.65298 | 19319 ft | 391 kts | 236° |
| 2026-04-16 08:25 | 55.84542 | 46.61184 | 19903 ft | 395 kts | 236° |
| 2026-04-16 08:25 | 55.83059 | 46.57055 | 20519 ft | 398 kts | 236° |
| 2026-04-16 08:26 | 55.81560 | 46.52895 | 21102 ft | 401 kts | 236° |
| 2026-04-16 08:26 | 55.80179 | 46.48638 | 21638 ft | 406 kts | 247° |
| 2026-04-16 08:26 | 55.79500 | 46.43775 | 22215 ft | 409 kts | 266° |
| 2026-04-16 08:26 | 55.79551 | 46.38699 | 22838 ft | 411 kts | 273° |
| 2026-04-16 08:27 | 55.79731 | 46.33593 | 23340 ft | 415 kts | 274° |
| 2026-04-16 08:27 | 55.79936 | 46.28462 | 23869 ft | 417 kts | 274° |
| 2026-04-16 08:27 | 55.80141 | 46.23290 | 24367 ft | 419 kts | 274° |
| 2026-04-16 08:27 | 55.80332 | 46.18152 | 24787 ft | 423 kts | 274° |
| 2026-04-16 08:28 | 55.80513 | 46.12918 | 25208 ft | 425 kts | 273° |
| 2026-04-16 08:28 | 55.80685 | 46.07646 | 25673 ft | 427 kts | 273° |
| 2026-04-16 08:28 | 55.80851 | 46.02344 | 26064 ft | 430 kts | 273° |
| 2026-04-16 08:28 | 55.81012 | 45.97006 | 26449 ft | 433 kts | 273° |
| 2026-04-16 08:29 | 55.81169 | 45.91707 | 26893 ft | 434 kts | 273° |
| 2026-04-16 08:29 | 55.81326 | 45.86324 | 27287 ft | 437 kts | 273° |
| 2026-04-16 08:29 | 55.81482 | 45.80904 | 27645 ft | 440 kts | 273° |
| 2026-04-16 08:29 | 55.81637 | 45.75445 | 28030 ft | 443 kts | 272° |
| 2026-04-16 08:30 | 55.81791 | 45.69946 | 28402 ft | 445 kts | 272° |
| 2026-04-16 08:30 | 55.81941 | 45.64495 | 28785 ft | 447 kts | 272° |
| 2026-04-16 08:30 | 55.82091 | 45.58961 | 29173 ft | 449 kts | 272° |
| 2026-04-16 08:30 | 55.82239 | 45.53415 | 29551 ft | 450 kts | 272° |
| 2026-04-16 08:31 | 55.82385 | 45.47817 | 29826 ft | 454 kts | 272° |
| 2026-04-16 08:31 | 55.82531 | 45.42178 | 30140 ft | 456 kts | 272° |
| 2026-04-16 08:31 | 55.82674 | 45.36523 | 30495 ft | 457 kts | 272° |
| 2026-04-16 08:31 | 55.82812 | 45.30953 | 30872 ft | 456 kts | 272° |
| 2026-04-16 08:32 | 55.82949 | 45.25319 | 31251 ft | 455 kts | 272° |
| 2026-04-16 08:32 | 55.83084 | 45.19691 | 31617 ft | 455 kts | 272° |
| 2026-04-16 08:32 | 55.83216 | 45.14055 | 31963 ft | 454 kts | 272° |
| 2026-04-16 08:32 | 55.83346 | 45.08450 | 32342 ft | 453 kts | 272° |
| 2026-04-16 08:33 | 55.83472 | 45.02909 | 32728 ft | 452 kts | 272° |
| 2026-04-16 08:33 | 55.83597 | 44.97259 | 33109 ft | 451 kts | 272° |
| 2026-04-16 08:33 | 55.83717 | 44.91746 | 33461 ft | 450 kts | 272° |
| 2026-04-16 08:33 | 55.83838 | 44.86170 | 33800 ft | 449 kts | 273° |
| 2026-04-16 08:34 | 55.83957 | 44.80597 | 34137 ft | 449 kts | 273° |
| 2026-04-16 08:34 | 55.84072 | 44.75108 | 34431 ft | 449 kts | 273° |
| 2026-04-16 08:34 | 55.84186 | 44.69554 | 34713 ft | 448 kts | 273° |
| 2026-04-16 08:34 | 55.84298 | 44.64009 | 35018 ft | 447 kts | 273° |
| 2026-04-16 08:35 | 55.84406 | 44.58497 | 35303 ft | 446 kts | 273° |
| 2026-04-16 08:35 | 55.84513 | 44.52959 | 35561 ft | 445 kts | 273° |
| 2026-04-16 08:35 | 55.84615 | 44.47517 | 35809 ft | 445 kts | 272° |
| 2026-04-16 08:35 | 55.84715 | 44.42006 | 36075 ft | 444 kts | 272° |
| 2026-04-16 08:36 | 55.84814 | 44.36500 | 36259 ft | 445 kts | 272° |
| 2026-04-16 08:36 | 55.84911 | 44.30943 | 36237 ft | 448 kts | 272° |
| 2026-04-16 08:36 | 55.85095 | 44.19892 | 36230 ft | 447 kts | 272° |
| 2026-04-16 08:37 | 55.85269 | 44.08876 | 36233 ft | 441 kts | 272° |
| 2026-04-16 08:37 | 55.85432 | 43.97992 | 36233 ft | 440 kts | 272° |
| 2026-04-16 08:38 | 55.85585 | 43.87107 | 36238 ft | 439 kts | 272° |
| 2026-04-16 08:38 | 55.85728 | 43.76277 | 36235 ft | 439 kts | 272° |
| 2026-04-16 08:39 | 55.85862 | 43.65420 | 36229 ft | 440 kts | 272° |
| 2026-04-16 08:39 | 55.85989 | 43.54511 | 36234 ft | 441 kts | 272° |
| 2026-04-16 08:40 | 55.86106 | 43.43562 | 36230 ft | 442 kts | 272° |
| 2026-04-16 08:40 | 55.86217 | 43.32651 | 36232 ft | 444 kts | 271° |
| 2026-04-16 08:41 | 55.86321 | 43.21613 | 36225 ft | 446 kts | 271° |
| 2026-04-16 08:41 | 55.86415 | 43.10612 | 36225 ft | 447 kts | 271° |
| 2026-04-16 08:42 | 55.86500 | 42.99524 | 36223 ft | 447 kts | 271° |
| 2026-04-16 08:42 | 55.86575 | 42.88431 | 36219 ft | 448 kts | 271° |
| 2026-04-16 08:43 | 55.86639 | 42.77336 | 36216 ft | 447 kts | 271° |
| 2026-04-16 08:43 | 55.86694 | 42.66317 | 36215 ft | 447 kts | 271° |
| 2026-04-16 08:44 | 55.86739 | 42.55226 | 36213 ft | 446 kts | 270° |
| 2026-04-16 08:44 | 55.86773 | 42.44179 | 36212 ft | 445 kts | 270° |
| 2026-04-16 08:45 | 55.86798 | 42.33140 | 36215 ft | 445 kts | 270° |
| 2026-04-16 08:45 | 55.86813 | 42.22186 | 36208 ft | 444 kts | 270° |
| 2026-04-16 08:46 | 55.86819 | 42.11173 | 36206 ft | 444 kts | 270° |
| 2026-04-16 08:46 | 55.86814 | 42.00230 | 36207 ft | 444 kts | 270° |
| 2026-04-16 08:47 | 55.86801 | 41.89182 | 36204 ft | 444 kts | 270° |
| 2026-04-16 08:47 | 55.86778 | 41.78217 | 36204 ft | 445 kts | 269° |
| 2026-04-16 08:48 | 55.86539 | 41.67164 | 36206 ft | 446 kts | 266° |
| 2026-04-16 08:48 | 55.86155 | 41.56138 | 36201 ft | 446 kts | 266° |
| 2026-04-16 08:49 | 55.85782 | 41.45100 | 36198 ft | 447 kts | 266° |
| 2026-04-16 08:49 | 55.85425 | 41.34089 | 36199 ft | 448 kts | 266° |
| 2026-04-16 08:50 | 55.85065 | 41.22997 | 36196 ft | 448 kts | 266° |
| 2026-04-16 08:50 | 55.84697 | 41.11973 | 36195 ft | 449 kts | 266° |
| 2026-04-16 08:51 | 55.84315 | 41.00852 | 36192 ft | 449 kts | 265° |
| 2026-04-16 08:51 | 55.83924 | 40.89811 | 36191 ft | 450 kts | 265° |
| 2026-04-16 08:52 | 55.83522 | 40.78689 | 36193 ft | 450 kts | 265° |
| 2026-04-16 08:52 | 55.83317 | 40.73118 | 35958 ft | 455 kts | 265° |
| 2026-04-16 08:52 | 55.83107 | 40.67471 | 35395 ft | 457 kts | 265° |
| 2026-04-16 08:53 | 55.82894 | 40.61837 | 34807 ft | 455 kts | 265° |
| 2026-04-16 08:53 | 55.82678 | 40.56308 | 34434 ft | 449 kts | 264° |
| 2026-04-16 08:53 | 55.82455 | 40.50748 | 33924 ft | 446 kts | 264° |
| 2026-04-16 08:53 | 55.82230 | 40.45249 | 33443 ft | 441 kts | 264° |
| 2026-04-16 08:54 | 55.82008 | 40.39905 | 33017 ft | 436 kts | 264° |
| 2026-04-16 08:54 | 55.81784 | 40.34538 | 32563 ft | 432 kts | 264° |
| 2026-04-16 08:54 | 55.81562 | 40.29216 | 32145 ft | 427 kts | 264° |
| 2026-04-16 08:54 | 55.81340 | 40.23960 | 31706 ft | 424 kts | 264° |
| 2026-04-16 08:55 | 55.81117 | 40.18752 | 31284 ft | 420 kts | 264° |
| 2026-04-16 08:55 | 55.80895 | 40.13599 | 30871 ft | 416 kts | 264° |
| 2026-04-16 08:55 | 55.80674 | 40.08538 | 30469 ft | 413 kts | 264° |
| 2026-04-16 08:55 | 55.80451 | 40.03458 | 30023 ft | 410 kts | 264° |
| 2026-04-16 08:56 | 55.80227 | 39.98402 | 29572 ft | 407 kts | 264° |
| 2026-04-16 08:56 | 55.80003 | 39.93389 | 29145 ft | 403 kts | 264° |
| 2026-04-16 08:56 | 55.79782 | 39.88494 | 28723 ft | 400 kts | 264° |
| 2026-04-16 08:56 | 55.79558 | 39.83572 | 28300 ft | 397 kts | 264° |
| 2026-04-16 08:57 | 55.79317 | 39.78707 | 28065 ft | 389 kts | 262° |
| 2026-04-16 08:57 | 55.79018 | 39.73977 | 27976 ft | 383 kts | 261° |
| 2026-04-16 08:57 | 55.78689 | 39.69210 | 27893 ft | 393 kts | 261° |
| 2026-04-16 08:57 | 55.78352 | 39.64398 | 27788 ft | 402 kts | 261° |
| 2026-04-16 08:58 | 55.78009 | 39.59429 | 27661 ft | 403 kts | 261° |
| 2026-04-16 08:58 | 55.77674 | 39.54502 | 27535 ft | 400 kts | 261° |
| 2026-04-16 08:58 | 55.77344 | 39.49603 | 27420 ft | 398 kts | 261° |
| 2026-04-16 08:58 | 55.77012 | 39.44722 | 27307 ft | 396 kts | 261° |
| 2026-04-16 08:59 | 55.76684 | 39.39932 | 27198 ft | 395 kts | 261° |
| 2026-04-16 08:59 | 55.76350 | 39.35106 | 27093 ft | 393 kts | 261° |
| 2026-04-16 08:59 | 55.76012 | 39.30292 | 26982 ft | 393 kts | 261° |
| 2026-04-16 08:59 | 55.75782 | 39.27029 | 26908 ft | 392 kts | 261° |
| 2026-04-16 09:00 | 55.75332 | 39.20668 | 26768 ft | 392 kts | 261° |
| 2026-04-16 09:00 | 55.74990 | 39.15862 | 26656 ft | 392 kts | 261° |
| 2026-04-16 09:00 | 55.74762 | 39.12681 | 26582 ft | 392 kts | 261° |
| 2026-04-16 09:00 | 55.74418 | 39.07875 | 26471 ft | 392 kts | 261° |
| 2026-04-16 09:01 | 55.73611 | 38.96707 | 26219 ft | 392 kts | 260° |
| 2026-04-16 09:01 | 55.73258 | 38.91896 | 26023 ft | 395 kts | 260° |
| 2026-04-16 09:01 | 55.73012 | 38.88667 | 25717 ft | 399 kts | 260° |
| 2026-04-16 09:02 | 55.72634 | 38.83817 | 25316 ft | 395 kts | 260° |
| 2026-04-16 09:02 | 55.72258 | 38.78996 | 24918 ft | 393 kts | 259° |
| 2026-04-16 09:02 | 55.71760 | 38.72646 | 24392 ft | 390 kts | 259° |
| 2026-04-16 09:02 | 55.71507 | 38.69421 | 24126 ft | 388 kts | 259° |
| 2026-04-16 09:03 | 55.71149 | 38.64742 | 23737 ft | 386 kts | 260° |
| 2026-04-16 09:03 | 55.70795 | 38.60026 | 23295 ft | 383 kts | 260° |
| 2026-04-16 09:03 | 55.70445 | 38.55356 | 22871 ft | 381 kts | 259° |
| 2026-04-16 09:03 | 55.70092 | 38.50703 | 22469 ft | 378 kts | 259° |
| 2026-04-16 09:04 | 55.69740 | 38.46103 | 22103 ft | 374 kts | 259° |
| 2026-04-16 09:04 | 55.69394 | 38.41600 | 21712 ft | 371 kts | 259° |
| 2026-04-16 09:04 | 55.69047 | 38.37080 | 21337 ft | 368 kts | 259° |
| 2026-04-16 09:04 | 55.68702 | 38.32594 | 20969 ft | 365 kts | 259° |
| 2026-04-16 09:05 | 55.68358 | 38.28144 | 20605 ft | 363 kts | 259° |
| 2026-04-16 09:05 | 55.68014 | 38.23731 | 20242 ft | 361 kts | 258° |
| 2026-04-16 09:05 | 55.67669 | 38.19357 | 20060 ft | 353 kts | 258° |
| 2026-04-16 09:05 | 55.67328 | 38.15126 | 19936 ft | 348 kts | 258° |
| 2026-04-16 09:06 | 55.66977 | 38.10829 | 19830 ft | 356 kts | 258° |
| 2026-04-16 09:06 | 55.66617 | 38.06450 | 19715 ft | 362 kts | 258° |
| 2026-04-16 09:06 | 55.66253 | 38.02015 | 19586 ft | 362 kts | 258° |
| 2026-04-16 09:06 | 55.65895 | 37.97615 | 19445 ft | 359 kts | 258° |
| 2026-04-16 09:07 | 55.65542 | 37.93326 | 19323 ft | 355 kts | 258° |
| 2026-04-16 09:07 | 55.65193 | 37.89109 | 19197 ft | 346 kts | 257° |
| 2026-04-16 09:07 | 55.64533 | 37.85108 | 18925 ft | 333 kts | 238° |
| 2026-04-16 09:07 | 55.63392 | 37.81578 | 18629 ft | 328 kts | 234° |
| 2026-04-16 09:08 | 55.62215 | 37.78110 | 18249 ft | 327 kts | 234° |
| 2026-04-16 09:08 | 55.61044 | 37.74646 | 17866 ft | 326 kts | 234° |
| 2026-04-16 09:08 | 55.59899 | 37.71213 | 17498 ft | 325 kts | 234° |
| 2026-04-16 09:08 | 55.58773 | 37.67802 | 17145 ft | 323 kts | 234° |
| 2026-04-16 09:09 | 55.57644 | 37.64374 | 16804 ft | 321 kts | 234° |
| 2026-04-16 09:09 | 55.56486 | 37.61021 | 16477 ft | 315 kts | 226° |
| 2026-04-16 09:09 | 55.54904 | 37.58408 | 15830 ft | 313 kts | 208° |
| 2026-04-16 09:09 | 55.52990 | 37.56514 | 15115 ft | 315 kts | 203° |
| 2026-04-16 09:10 | 55.51061 | 37.54771 | 14391 ft | 317 kts | 202° |
| 2026-04-16 09:10 | 55.49090 | 37.53007 | 13641 ft | 318 kts | 202° |
| 2026-04-16 09:10 | 55.47116 | 37.51227 | 12795 ft | 319 kts | 202° |
| 2026-04-16 09:10 | 55.45133 | 37.49423 | 11889 ft | 323 kts | 203° |
| 2026-04-16 09:11 | 55.43135 | 37.47591 | 11014 ft | 325 kts | 203° |
| 2026-04-16 09:11 | 55.41125 | 37.45746 | 10173 ft | 325 kts | 203° |
| 2026-04-16 09:11 | 55.39112 | 37.43899 | 9255 ft | 326 kts | 203° |
| 2026-04-16 09:11 | 55.37281 | 37.41604 | 8455 ft | 330 kts | 223° |
| 2026-04-16 09:12 | 55.36045 | 37.38189 | 7686 ft | 335 kts | 245° |
| 2026-04-16 09:12 | 55.35597 | 37.34162 | 6949 ft | 339 kts | 267° |
| 2026-04-16 09:12 | 55.36027 | 37.30104 | 6252 ft | 339 kts | 289° |
| 2026-04-16 09:12 | 55.37228 | 37.26612 | 5753 ft | 330 kts | 310° |
| 2026-04-16 09:13 | 55.38769 | 37.23767 | 5506 ft | 313 kts | 313° |
| 2026-04-16 09:13 | 55.40251 | 37.21086 | 5227 ft | 299 kts | 313° |
| 2026-04-16 09:13 | 55.41661 | 37.18497 | 4967 ft | 287 kts | 313° |
| 2026-04-16 09:13 | 55.43013 | 37.15992 | 4691 ft | 276 kts | 313° |
| 2026-04-16 09:14 | 55.44323 | 37.13647 | 4420 ft | 267 kts | 317° |
| 2026-04-16 09:14 | 55.45716 | 37.11536 | 4215 ft | 261 kts | 320° |
| 2026-04-16 09:14 | 55.47099 | 37.09507 | 4016 ft | 253 kts | 320° |
| 2026-04-16 09:14 | 55.48423 | 37.07552 | 3825 ft | 243 kts | 320° |
| 2026-04-16 09:15 | 55.49821 | 37.05968 | 3641 ft | 237 kts | 338° |
| 2026-04-16 09:15 | 55.51334 | 37.05019 | 3497 ft | 226 kts | 343° |
| 2026-04-16 09:15 | 55.52820 | 37.04276 | 3272 ft | 218 kts | 355° |
| 2026-04-16 09:15 | 55.54223 | 37.04864 | 2960 ft | 200 kts | 41° |
| 2026-04-16 09:16 | 55.54907 | 37.06787 | 2753 ft | 178 kts | 79° |
| 2026-04-16 09:16 | 55.55265 | 37.08781 | 2518 ft | 168 kts | 68° |
| 2026-04-16 09:16 | 55.55704 | 37.10594 | 2325 ft | 152 kts | 72° |
| 2026-04-16 09:16 | 55.56075 | 37.12333 | 2099 ft | 149 kts | 72° |
| 2026-04-16 09:17 | 55.56448 | 37.14030 | 1888 ft | 147 kts | 71° |
| 2026-04-16 09:17 | 55.56823 | 37.15713 | 1685 ft | 149 kts | 70° |
| 2026-04-16 09:17 | 55.57203 | 37.17414 | 1463 ft | 148 kts | 70° |
| 2026-04-16 09:17 | 55.57580 | 37.19110 | 1268 ft | 147 kts | 70° |
| 2026-04-16 09:18 | 55.57944 | 37.20788 | 1058 ft | 147 kts | 70° |
| 2026-04-16 09:18 | 55.58313 | 37.22465 | 905 ft | 145 kts | 68° |
| 2026-04-16 09:18 | 55.58704 | 37.24118 | 735 ft | 144 kts | 69° |
| 2026-04-16 09:18 | 55.59037 | 37.25637 | 687 ft | 110 kts | 69° |
| 2026-04-16 09:19 | 55.59241 | 37.26531 | 685 ft | 47 kts | 66° |
| 2026-04-16 09:19 | 55.59348 | 37.27004 | 692 ft | 38 kts | 69° |
| 2026-04-16 09:19 | 55.59459 | 37.27377 | 690 ft | 31 kts | 50° |
| 2026-04-16 09:19 | 55.59577 | 37.27573 | 692 ft | 18 kts | 41° |
| 2026-04-16 09:20 | 55.59643 | 37.27675 | 694 ft | 0 kts | 41° |
| 2026-04-16 09:21 | 55.59664 | 37.27706 | 691 ft | 8 kts | 36° |
| 2026-04-16 09:21 | 55.59735 | 37.27763 | 694 ft | 15 kts | 20° |
| 2026-04-16 09:21 | 55.59832 | 37.27826 | 689 ft | 15 kts | 18° |
| 2026-04-16 09:22 | 55.59927 | 37.27872 | 692 ft | 14 kts | 7° |
| 2026-04-16 09:22 | 55.60005 | 37.27791 | 693 ft | 13 kts | 314° |
| 2026-04-16 09:22 | 55.60083 | 37.27792 | 689 ft | 13 kts | 46° |
| 2026-04-16 09:22 | 55.60119 | 37.27926 | 692 ft | 12 kts | 84° |
| 2026-04-16 09:23 | 55.60169 | 37.28038 | 693 ft | 12 kts | 36° |
| 2026-04-16 09:23 | 55.60178 | 37.28051 | 691 ft | 0 kts | 36° |